Terminal Aerodrome Forecast
Issued by NWS Twin Cities, MN

Home | Current Version | Previous Version | Graphics & Text | Print | Product List | Glossary On
Versions: 1 2 3 4 5 6 7 8 9 10 11 12 13 14 15 16 17 18 19 20
000
FTUS43 KMPX 150234 AAA
TAFSTC
TAF AMD
KSTC 150234Z 1503/1524 36012G18KT P6SM -SHRA SCT015 OVC035
     FM150800 33015G22KT P6SM -RA OVC025
     FM151100 32011KT P6SM SCT035
     FM151900 28010KT P6SM SCT100 BKN250=

USA.gov is the U.S. government's official web portal to all federal, state and local government web resources and services.